createdAt,value
2024-02-18T00:00:25.471Z,11.69
2024-02-18T00:02:54.503Z,11.67
2024-02-18T00:05:22.148Z,11.63
2024-02-18T00:07:49.658Z,11.59
2024-02-18T00:10:17.157Z,11.55
2024-02-18T00:12:45.056Z,11.53
2024-02-18T00:15:12.453Z,11.48
2024-02-18T00:17:40.001Z,11.49
2024-02-18T00:20:07.820Z,11.46
2024-02-18T00:22:35.382Z,11.41
2024-02-18T00:25:02.995Z,11.33
2024-02-18T00:27:30.482Z,11.26
2024-02-18T00:29:58.016Z,11.22
2024-02-18T00:32:25.490Z,11.21
2024-02-18T00:34:53.146Z,11.24
2024-02-18T00:37:20.703Z,11.23
2024-02-18T00:39:48.184Z,11.22
2024-02-18T00:42:15.656Z,11.21
2024-02-18T00:44:43.000Z,11.20
2024-02-18T00:47:10.539Z,11.20
2024-02-18T00:49:38.164Z,11.19
2024-02-18T00:52:06.026Z,11.20
2024-02-18T00:54:33.718Z,11.21
2024-02-18T00:57:01.193Z,11.18
2024-02-18T00:59:28.662Z,11.19
2024-02-18T01:01:56.171Z,11.21
2024-02-18T01:04:23.586Z,11.20
2024-02-18T01:06:51.511Z,11.20
2024-02-18T01:09:18.844Z,11.19
2024-02-18T01:11:46.320Z,11.19
2024-02-18T01:14:13.714Z,11.17
2024-02-18T01:16:42.119Z,11.15
2024-02-18T01:19:09.950Z,11.15
2024-02-18T01:21:37.756Z,11.15
2024-02-18T01:24:05.379Z,11.13
2024-02-18T01:26:33.005Z,11.12
2024-02-18T01:29:00.458Z,11.12
2024-02-18T01:31:28.059Z,11.10
2024-02-18T01:33:55.874Z,11.09
2024-02-18T01:36:23.560Z,11.09
2024-02-18T01:38:51.187Z,11.07
2024-02-18T01:41:18.624Z,11.07
2024-02-18T01:43:45.988Z,11.08
2024-02-18T01:46:13.588Z,11.07
2024-02-18T01:48:41.458Z,11.02
2024-02-18T01:51:09.224Z,11.04
2024-02-18T01:53:38.233Z,11.04
2024-02-18T01:56:07.488Z,11.03
2024-02-18T01:58:35.648Z,11.03
2024-02-18T02:01:04.864Z,11.02
2024-02-18T02:03:33.991Z,11.01
2024-02-18T02:06:03.163Z,11.01
2024-02-18T02:08:32.036Z,11.01
2024-02-18T02:11:00.156Z,11.00
2024-02-18T02:13:27.504Z,10.98
2024-02-18T02:15:55.239Z,10.98
2024-02-18T02:18:22.772Z,10.98
2024-02-18T02:20:50.254Z,10.95
2024-02-18T02:23:18.294Z,10.95
2024-02-18T02:25:45.703Z,10.94
2024-02-18T02:28:23.933Z,10.93
2024-02-18T02:30:51.724Z,10.90
2024-02-18T02:33:19.769Z,10.90
2024-02-18T02:35:47.982Z,10.87
2024-02-18T02:38:15.868Z,10.87
2024-02-18T02:40:43.355Z,10.85
2024-02-18T02:43:12.374Z,10.89
2024-02-18T02:45:40.041Z,10.87
2024-02-18T02:48:07.564Z,10.86
2024-02-18T02:50:38.613Z,10.85
2024-02-18T02:53:07.036Z,10.83
2024-02-18T02:55:34.276Z,10.82
2024-02-18T02:58:01.857Z,10.80
2024-02-18T03:00:29.494Z,10.78
2024-02-18T03:02:59.910Z,10.76
2024-02-18T03:05:27.297Z,10.76
2024-02-18T03:07:54.598Z,10.75
2024-02-18T03:10:21.848Z,10.73
2024-02-18T03:12:49.295Z,10.73
2024-02-18T03:15:16.615Z,10.70
2024-02-18T03:17:43.980Z,10.71
2024-02-18T03:20:13.531Z,10.66
2024-02-18T03:22:41.209Z,10.68
2024-02-18T03:25:08.815Z,10.69
2024-02-18T03:27:36.311Z,10.67
2024-02-18T03:30:04.137Z,10.64
2024-02-18T03:32:31.412Z,10.65
2024-02-18T03:34:59.090Z,10.63
2024-02-18T03:37:26.356Z,10.61
2024-02-18T03:39:53.794Z,10.63
2024-02-18T03:42:21.084Z,10.63
2024-02-18T03:44:48.900Z,10.64
2024-02-18T03:47:17.114Z,10.63
2024-02-18T03:49:44.630Z,10.62
2024-02-18T03:52:11.928Z,10.60
2024-02-18T03:54:39.326Z,10.61
2024-02-18T03:57:06.658Z,10.57
2024-02-18T03:59:33.889Z,10.55
2024-02-18T04:02:01.443Z,10.53
2024-02-18T04:04:29.036Z,10.47
2024-02-18T04:06:56.720Z,10.45
2024-02-18T04:09:24.004Z,10.40
2024-02-18T04:11:51.562Z,10.40
2024-02-18T04:14:18.850Z,10.42
2024-02-18T04:16:46.096Z,10.45
2024-02-18T04:19:13.613Z,10.44
2024-02-18T04:21:40.952Z,10.42
2024-02-18T04:24:08.315Z,10.41
2024-02-18T04:26:35.687Z,10.42
2024-02-18T04:29:03.053Z,10.42
2024-02-18T04:31:30.425Z,10.41
2024-02-18T04:33:57.743Z,10.41
2024-02-18T04:36:25.490Z,10.44
2024-02-18T04:38:52.742Z,10.44
2024-02-18T04:41:22.712Z,10.42
2024-02-18T04:43:50.084Z,10.46
2024-02-18T04:46:17.278Z,10.42
2024-02-18T04:48:44.754Z,10.43
2024-02-18T04:51:13.211Z,10.43
2024-02-18T04:53:40.799Z,10.43
2024-02-18T04:56:08.188Z,10.43
2024-02-18T04:58:35.471Z,10.40
2024-02-18T05:01:03.295Z,10.41
2024-02-18T05:03:30.764Z,10.39
2024-02-18T05:05:58.211Z,10.35
2024-02-18T05:08:25.582Z,10.36
2024-02-18T05:10:52.947Z,10.36
2024-02-18T05:13:20.168Z,10.30
2024-02-18T05:15:48.057Z,10.32
2024-02-18T05:18:15.468Z,10.30
2024-02-18T05:20:42.919Z,10.26
2024-02-18T05:23:10.299Z,10.26
2024-02-18T05:25:38.069Z,10.26
2024-02-18T05:28:09.376Z,10.29
2024-02-18T05:30:36.848Z,10.31
2024-02-18T05:33:04.358Z,10.31
2024-02-18T05:35:31.807Z,10.32
2024-02-18T05:37:59.151Z,10.30
2024-02-18T05:40:26.374Z,10.31
2024-02-18T05:42:53.879Z,10.30
2024-02-18T05:45:23.891Z,10.29
2024-02-18T05:47:51.559Z,10.30
2024-02-18T05:50:18.874Z,10.31
2024-02-18T05:52:46.274Z,10.38
2024-02-18T05:55:13.547Z,10.56
2024-02-18T05:57:40.930Z,10.87
2024-02-18T06:00:08.760Z,11.23
2024-02-18T06:02:37.157Z,11.54
2024-02-18T06:05:04.731Z,12.09
2024-02-18T06:07:32.109Z,12.63
2024-02-18T06:09:59.478Z,13.12
2024-02-18T06:12:26.896Z,13.74
2024-02-18T06:14:54.092Z,14.18
2024-02-18T06:17:21.439Z,14.57
2024-02-18T06:19:48.694Z,15.04
2024-02-18T06:22:15.984Z,15.61
2024-02-18T06:24:45.035Z,15.89
2024-02-18T06:27:12.185Z,16.30
2024-02-18T06:29:39.616Z,16.55
2024-02-18T06:32:07.152Z,17.11
2024-02-18T06:34:34.637Z,17.46
2024-02-18T06:37:02.161Z,17.94
2024-02-18T06:39:29.345Z,18.45
2024-02-18T06:41:56.610Z,18.77
2024-02-18T06:44:23.893Z,19.06
2024-02-18T06:46:53.079Z,19.54
2024-02-18T06:49:20.869Z,19.74
2024-02-18T06:51:48.289Z,19.93
2024-02-18T06:54:15.654Z,19.85
2024-02-18T06:56:42.935Z,19.94
2024-02-18T06:59:10.223Z,19.96
2024-02-18T07:01:37.579Z,19.73
2024-02-18T07:04:05.113Z,19.46
2024-02-18T07:06:32.973Z,19.07
2024-02-18T07:09:03.203Z,18.35
2024-02-18T07:11:31.909Z,17.56
2024-02-18T07:13:59.178Z,16.93
2024-02-18T07:16:26.570Z,16.61
2024-02-18T07:18:53.961Z,16.54
2024-02-18T07:21:21.464Z,16.78
2024-02-18T07:23:48.762Z,17.17
2024-02-18T07:26:16.143Z,17.29
2024-02-18T07:28:43.671Z,17.15
2024-02-18T07:31:11.038Z,17.17
2024-02-18T07:33:38.673Z,17.08
2024-02-18T07:36:06.350Z,16.71
2024-02-18T07:38:33.663Z,16.54
2024-02-18T07:41:00.920Z,16.25
2024-02-18T07:43:28.270Z,15.92
2024-02-18T07:45:55.803Z,15.54
2024-02-18T07:48:24.678Z,15.25
2024-02-18T07:50:52.158Z,15.04
2024-02-18T07:53:20.175Z,14.82
2024-02-18T07:55:47.383Z,14.73
2024-02-18T07:58:17.531Z,14.60
2024-02-18T08:03:47.608Z,14.56
2024-02-18T08:06:14.985Z,14.59
2024-02-18T08:08:42.433Z,14.56
2024-02-18T08:11:09.925Z,14.61
2024-02-18T08:13:37.243Z,14.61
2024-02-18T08:16:04.902Z,14.63
2024-02-18T08:18:32.253Z,14.74
2024-02-18T08:20:59.839Z,14.75
2024-02-18T08:23:27.059Z,14.71
2024-02-18T08:25:54.468Z,14.75
2024-02-18T08:28:21.750Z,14.75
2024-02-18T08:30:49.245Z,14.71
2024-02-18T08:33:16.782Z,14.75
2024-02-18T08:35:44.209Z,14.82
2024-02-18T08:38:11.449Z,14.78
2024-02-18T08:40:38.636Z,14.85
2024-02-18T08:43:06.112Z,14.81
2024-02-18T08:45:33.499Z,14.81
2024-02-18T08:48:01.410Z,14.93
2024-02-18T08:50:30.468Z,14.96
2024-02-18T08:52:57.865Z,14.99
2024-02-18T08:55:28.057Z,14.99
2024-02-18T08:57:56.316Z,14.97
2024-02-18T09:00:23.819Z,14.94
2024-02-18T09:02:51.593Z,14.91
2024-02-18T09:05:19.238Z,15.02
2024-02-18T09:07:46.859Z,15.16
2024-02-18T09:10:14.173Z,15.23
2024-02-18T09:12:41.433Z,15.31
2024-02-18T09:15:10.720Z,15.38
2024-02-18T09:17:38.429Z,15.49
2024-02-18T09:20:07.393Z,15.57
2024-02-18T09:22:34.687Z,15.65
2024-02-18T09:25:02.010Z,15.70
2024-02-18T09:27:29.211Z,15.80
2024-02-18T09:29:56.429Z,15.79
2024-02-18T09:32:23.743Z,15.77
2024-02-18T09:34:51.176Z,15.93
2024-02-18T09:37:18.583Z,16.04
2024-02-18T09:39:45.999Z,16.02
2024-02-18T09:42:14.468Z,15.99
2024-02-18T09:44:43.458Z,15.90
2024-02-18T09:47:16.977Z,15.85
2024-02-18T09:50:53.040Z,16.01
2024-02-18T09:53:20.505Z,16.16
2024-02-18T09:55:50.029Z,16.34
2024-02-18T09:58:19.690Z,16.46
2024-02-18T10:00:47.169Z,16.51
2024-02-18T10:03:16.345Z,16.52
2024-02-18T10:05:43.799Z,16.60
2024-02-18T10:08:11.064Z,16.56
2024-02-18T10:10:38.688Z,16.58
2024-02-18T10:13:08.013Z,16.72
2024-02-18T10:15:36.318Z,16.76
2024-02-18T10:18:04.132Z,16.86
2024-02-18T10:20:31.821Z,16.91
2024-02-18T10:22:59.124Z,16.94
2024-02-18T10:25:26.516Z,16.85
2024-02-18T10:27:58.722Z,16.81
2024-02-18T10:30:26.554Z,16.76
2024-02-18T10:32:55.004Z,16.91
2024-02-18T10:35:23.466Z,16.92
2024-02-18T10:37:56.726Z,16.97
2024-02-18T10:40:40.317Z,16.79
2024-02-18T10:43:11.982Z,16.97
2024-02-18T10:45:42.454Z,17.01
2024-02-18T10:48:13.030Z,17.09
2024-02-18T10:50:45.271Z,17.08
2024-02-18T10:53:51.860Z,17.03
2024-02-18T10:56:23.750Z,17.11
2024-02-18T10:59:11.326Z,17.24
2024-02-18T11:01:49.899Z,17.14
2024-02-18T11:04:19.197Z,17.09
2024-02-18T11:06:48.720Z,17.10
2024-02-18T11:09:18.720Z,17.05
2024-02-18T11:11:48.624Z,17.01
2024-02-18T11:14:17.500Z,16.94
2024-02-18T11:16:47.277Z,17.01
2024-02-18T11:19:15.219Z,17.08
2024-02-18T11:21:44.788Z,17.04
2024-02-18T11:24:13.791Z,17.07
2024-02-18T11:26:41.406Z,17.04
2024-02-18T11:29:08.883Z,17.01
2024-02-18T11:31:36.516Z,16.88
2024-02-18T11:34:04.441Z,16.90
2024-02-18T11:36:32.228Z,16.89
2024-02-18T11:38:59.944Z,16.82
2024-02-18T11:41:32.133Z,16.83
2024-02-18T11:44:01.274Z,16.88
2024-02-18T11:46:30.706Z,16.98
2024-02-18T11:48:59.142Z,17.03
2024-02-18T11:51:30.071Z,17.06
2024-02-18T11:54:00.661Z,17.09
2024-02-18T11:56:28.172Z,17.05
2024-02-18T11:58:56.109Z,17.15
2024-02-18T12:01:27.335Z,17.23
2024-02-18T12:03:58.499Z,17.03
2024-02-18T12:06:27.163Z,16.94
2024-02-18T12:08:54.766Z,16.99
2024-02-18T12:11:22.545Z,17.09
2024-02-18T12:13:51.089Z,16.89
2024-02-18T12:16:19.782Z,16.98
2024-02-18T12:18:47.329Z,16.88
2024-02-18T12:21:18.727Z,16.80
2024-02-18T12:23:46.245Z,16.99
2024-02-18T12:26:14.750Z,16.78
2024-02-18T12:28:42.346Z,16.98
2024-02-18T12:31:10.877Z,16.84
2024-02-18T12:33:38.717Z,17.08
2024-02-18T12:36:06.392Z,16.95
2024-02-18T12:38:35.941Z,16.91
2024-02-18T12:41:05.612Z,16.81
2024-02-18T12:46:07.256Z,16.83
2024-02-18T12:48:37.446Z,16.80
2024-02-18T12:51:10.809Z,16.66
2024-02-18T12:53:43.081Z,16.76
2024-02-18T12:56:12.377Z,16.82
2024-02-18T12:58:40.997Z,16.58
2024-02-18T13:01:11.062Z,16.56
2024-02-18T13:03:39.930Z,16.65
2024-02-18T13:06:08.350Z,16.77
2024-02-18T13:08:35.762Z,16.50
2024-02-18T13:11:03.216Z,16.30
2024-02-18T13:13:30.617Z,16.16
2024-02-18T13:15:57.937Z,16.17
2024-02-18T13:18:25.489Z,16.19
2024-02-18T13:20:52.866Z,16.30
2024-02-18T13:23:20.070Z,16.25
2024-02-18T13:25:47.476Z,16.14
2024-02-18T13:28:18.612Z,16.11
2024-02-18T13:30:46.323Z,16.12
2024-02-18T13:33:14.253Z,16.07
2024-02-18T13:35:41.738Z,16.12
2024-02-18T13:38:09.165Z,16.13
2024-02-18T13:40:36.435Z,16.13
2024-02-18T13:43:04.822Z,16.14
2024-02-18T13:45:33.091Z,16.16
2024-02-18T13:48:00.567Z,16.06
2024-02-18T13:50:28.441Z,16.00
2024-02-18T13:52:56.340Z,15.98
2024-02-18T13:55:25.037Z,15.90
2024-02-18T13:57:52.440Z,15.82
2024-02-18T14:00:19.930Z,15.84
2024-02-18T14:02:47.108Z,15.92
2024-02-18T14:05:22.422Z,15.86
2024-02-18T14:07:49.970Z,15.83
2024-02-18T14:10:21.449Z,15.83
2024-02-18T14:12:50.013Z,15.78
2024-02-18T14:15:17.630Z,15.76
2024-02-18T14:17:45.020Z,15.68
2024-02-18T14:20:13.264Z,15.63
2024-02-18T14:22:40.925Z,15.59
2024-02-18T14:25:09.477Z,15.49
2024-02-18T14:27:37.565Z,15.53
2024-02-18T14:30:06.600Z,15.46
2024-02-18T14:32:34.184Z,15.34
2024-02-18T14:35:03.104Z,15.45
2024-02-18T14:37:30.588Z,15.51
2024-02-18T14:39:57.757Z,15.51
2024-02-18T14:42:25.263Z,15.47
2024-02-18T14:44:56.896Z,15.47
2024-02-18T14:47:26.254Z,15.40
2024-02-18T14:49:53.831Z,15.38
2024-02-18T14:52:21.268Z,15.33
2024-02-18T14:54:48.674Z,15.43
2024-02-18T14:57:16.900Z,15.44
2024-02-18T14:59:44.157Z,15.45
2024-02-18T15:02:11.503Z,15.32
2024-02-18T15:04:39.434Z,15.29
2024-02-18T15:07:07.092Z,15.35
2024-02-18T15:09:34.678Z,15.30
2024-02-18T15:12:02.171Z,15.25
2024-02-18T15:14:30.262Z,15.27
2024-02-18T15:16:57.618Z,15.30
2024-02-18T15:19:25.450Z,15.32
2024-02-18T15:21:52.979Z,15.31
2024-02-18T15:24:20.255Z,15.19
2024-02-18T15:26:47.669Z,15.15
2024-02-18T15:29:18.810Z,15.08
2024-02-18T15:31:46.041Z,14.99
2024-02-18T15:34:16.485Z,15.06
2024-02-18T15:36:44.900Z,14.98
2024-02-18T15:39:12.731Z,14.94
2024-02-18T15:41:40.042Z,14.88
2024-02-18T15:44:07.332Z,14.85
2024-02-18T15:46:34.474Z,14.84
2024-02-18T15:49:02.032Z,14.75
2024-02-18T15:51:29.985Z,14.75
2024-02-18T15:53:57.640Z,14.73
2024-02-18T15:56:25.602Z,14.71
2024-02-18T15:58:52.883Z,14.70
2024-02-18T16:01:21.307Z,14.61
2024-02-18T16:03:48.782Z,14.59
2024-02-18T16:06:16.215Z,14.61
2024-02-18T16:08:44.280Z,14.56
2024-02-18T16:11:12.654Z,14.55
2024-02-18T16:13:43.183Z,14.53
2024-02-18T16:16:10.793Z,14.50
2024-02-18T16:18:39.275Z,14.47
2024-02-18T16:21:06.693Z,14.46
2024-02-18T16:23:33.852Z,14.42
2024-02-18T16:26:01.328Z,14.39
2024-02-18T16:28:28.671Z,14.36
2024-02-18T16:30:56.307Z,14.33
2024-02-18T16:33:23.759Z,14.32
2024-02-18T16:35:51.206Z,14.32
2024-02-18T16:38:18.602Z,14.25
2024-02-18T16:40:46.045Z,14.20
2024-02-18T16:43:13.465Z,14.16
2024-02-18T16:45:40.703Z,14.14
2024-02-18T16:48:08.770Z,14.12
2024-02-18T16:50:37.602Z,14.07
2024-02-18T16:53:05.479Z,14.00
2024-02-18T16:55:32.705Z,14.00
2024-02-18T16:58:00.083Z,14.01
2024-02-18T17:00:28.587Z,14.01
2024-02-18T17:02:56.549Z,13.99
2024-02-18T17:05:24.000Z,13.94
2024-02-18T17:07:51.890Z,13.93
2024-02-18T17:10:19.297Z,13.90
2024-02-18T17:12:46.841Z,13.88
2024-02-18T17:15:14.151Z,13.84
2024-02-18T17:17:41.532Z,13.81
2024-02-18T17:20:09.484Z,13.76
2024-02-18T17:22:37.057Z,13.71
2024-02-18T17:25:04.842Z,13.75
2024-02-18T17:27:32.250Z,13.70
2024-02-18T17:29:59.602Z,13.71
2024-02-18T17:32:28.201Z,13.71
2024-02-18T17:34:55.895Z,13.68
2024-02-18T17:37:23.568Z,13.64
2024-02-18T17:39:53.391Z,13.61
2024-02-18T17:42:20.628Z,13.59
2024-02-18T17:44:47.912Z,13.59
2024-02-18T17:47:16.298Z,13.58
2024-02-18T17:49:43.609Z,13.58
2024-02-18T17:52:12.536Z,13.54
2024-02-18T17:54:39.952Z,13.55
2024-02-18T17:57:07.432Z,13.55
2024-02-18T17:59:34.789Z,13.55
2024-02-18T18:02:02.325Z,13.54
2024-02-18T18:04:30.186Z,13.53
2024-02-18T18:06:57.838Z,13.54
2024-02-18T18:09:25.271Z,13.52
2024-02-18T18:11:52.646Z,13.51
2024-02-18T18:14:19.924Z,13.49
2024-02-18T18:16:47.339Z,13.46
2024-02-18T18:19:14.639Z,13.46
2024-02-18T18:21:41.964Z,13.43
2024-02-18T18:24:09.316Z,13.42
2024-02-18T18:26:36.596Z,13.42
2024-02-18T18:29:04.052Z,13.40
2024-02-18T18:31:31.409Z,13.38
2024-02-18T18:33:59.006Z,13.37
2024-02-18T18:36:26.318Z,13.37
2024-02-18T18:38:54.704Z,13.36
2024-02-18T18:41:22.250Z,13.33
2024-02-18T18:43:49.743Z,13.33
2024-02-18T18:46:17.061Z,13.34
2024-02-18T18:48:44.589Z,13.37
2024-02-18T18:51:11.917Z,13.34
2024-02-18T18:53:39.624Z,13.36
2024-02-18T18:56:07.974Z,13.35
2024-02-18T18:58:36.315Z,13.33
2024-02-18T19:01:04.594Z,13.35
2024-02-18T19:03:32.242Z,13.33
2024-02-18T19:05:59.553Z,13.34
2024-02-18T19:08:26.946Z,13.36
2024-02-18T19:10:54.231Z,13.35
2024-02-18T19:13:38.955Z,13.35
2024-02-18T19:16:20.874Z,13.35
2024-02-18T19:18:51.686Z,13.33
2024-02-18T19:21:19.828Z,13.32
2024-02-18T19:23:47.210Z,13.32
2024-02-18T19:26:16.145Z,13.30
2024-02-18T19:28:44.249Z,13.27
2024-02-18T19:31:15.630Z,13.26
2024-02-18T19:33:45.459Z,13.25
2024-02-18T19:36:14.725Z,13.23
2024-02-18T19:38:46.169Z,13.24
2024-02-18T19:41:13.720Z,13.29
2024-02-18T19:43:41.226Z,13.29
2024-02-18T19:46:08.689Z,13.30
2024-02-18T19:48:36.199Z,13.27
2024-02-18T19:51:03.933Z,13.25
2024-02-18T19:53:31.782Z,13.24
2024-02-18T19:55:58.997Z,13.25
2024-02-18T19:58:26.224Z,13.22
2024-02-18T20:00:54.139Z,13.18
2024-02-18T20:03:21.522Z,13.13
2024-02-18T20:05:48.960Z,13.11
2024-02-18T20:08:18.649Z,13.10
2024-02-18T20:10:45.982Z,13.07
2024-02-18T20:13:13.355Z,13.07
2024-02-18T20:15:40.996Z,13.07
2024-02-18T20:18:08.681Z,13.06
2024-02-18T20:20:42.816Z,13.05
2024-02-18T20:23:10.174Z,13.01
2024-02-18T20:25:37.448Z,13.01
2024-02-18T20:28:05.070Z,12.99
2024-02-18T20:30:32.558Z,12.96
2024-02-18T20:33:00.908Z,12.92
2024-02-18T20:35:28.421Z,12.92
2024-02-18T20:37:55.707Z,12.88
2024-02-18T20:40:25.132Z,12.84
2024-02-18T20:42:54.281Z,12.82
2024-02-18T20:45:22.642Z,12.78
2024-02-18T20:47:50.123Z,12.76
2024-02-18T20:50:17.502Z,12.75
2024-02-18T20:52:44.906Z,12.74
2024-02-18T20:55:12.376Z,12.81
2024-02-18T20:57:40.011Z,12.85
2024-02-18T21:00:08.293Z,12.93
2024-02-18T21:02:35.855Z,12.94
2024-02-18T21:05:03.810Z,12.93
2024-02-18T21:07:31.407Z,12.94
2024-02-18T21:10:00.339Z,12.95
2024-02-18T21:12:30.873Z,12.91
2024-02-18T21:14:58.357Z,12.93
2024-02-18T21:17:29.029Z,12.91
2024-02-18T21:19:56.674Z,12.90
2024-02-18T21:22:24.044Z,12.88
2024-02-18T21:24:51.520Z,12.87
2024-02-18T21:27:20.577Z,12.86
2024-02-18T21:29:47.811Z,12.88
2024-02-18T21:32:15.154Z,12.86
2024-02-18T21:34:42.703Z,12.86
2024-02-18T21:37:10.112Z,12.84
2024-02-18T21:39:47.477Z,12.80
2024-02-18T21:42:16.278Z,12.77
2024-02-18T21:44:43.561Z,12.74
2024-02-18T21:47:11.276Z,12.71
2024-02-18T21:49:38.660Z,12.69
2024-02-18T21:52:06.229Z,12.65
2024-02-18T21:54:33.575Z,12.63
2024-02-18T21:57:00.898Z,12.61
2024-02-18T21:59:29.882Z,12.63
2024-02-18T22:01:57.529Z,12.64
2024-02-18T22:04:25.237Z,12.65
2024-02-18T22:07:04.852Z,12.62
2024-02-18T22:09:40.523Z,12.61
2024-02-18T22:12:08.092Z,12.59
2024-02-18T22:14:35.512Z,12.60
2024-02-18T22:17:02.757Z,12.55
2024-02-18T22:19:30.268Z,12.52
2024-02-18T22:21:57.659Z,12.48
2024-02-18T22:24:25.656Z,12.46
2024-02-18T22:26:53.730Z,12.42
2024-02-18T22:29:21.022Z,12.39
2024-02-18T22:31:48.634Z,12.37
2024-02-18T22:34:19.392Z,12.38
2024-02-18T22:36:46.883Z,12.34
2024-02-18T22:39:14.454Z,12.31
2024-02-18T22:41:45.098Z,12.25
2024-02-18T22:44:12.604Z,12.15
2024-02-18T22:46:39.917Z,12.10
2024-02-18T22:49:07.313Z,12.09
2024-02-18T22:51:36.298Z,12.09
2024-02-18T22:54:03.980Z,12.09
2024-02-18T22:56:31.318Z,12.08
2024-02-18T22:58:58.589Z,12.05
2024-02-18T23:01:31.796Z,12.05
2024-02-18T23:03:59.377Z,12.02
2024-02-18T23:06:31.314Z,12.04
2024-02-18T23:08:59.577Z,12.08
2024-02-18T23:11:27.487Z,12.10
2024-02-18T23:13:54.761Z,12.09
2024-02-18T23:16:22.072Z,12.13
2024-02-18T23:18:49.609Z,12.10
2024-02-18T23:21:18.224Z,12.08
2024-02-18T23:23:45.492Z,12.07
2024-02-18T23:26:12.944Z,12.06
2024-02-18T23:28:40.341Z,12.05
2024-02-18T23:31:07.931Z,12.06
2024-02-18T23:33:36.179Z,12.04
2024-02-18T23:36:04.498Z,12.06
2024-02-18T23:38:31.986Z,12.09
2024-02-18T23:41:03.393Z,12.12
2024-02-18T23:43:41.724Z,12.13
2024-02-18T23:46:10.277Z,12.11
2024-02-18T23:48:38.186Z,12.09
2024-02-18T23:51:06.077Z,12.08
2024-02-18T23:53:33.449Z,12.09
2024-02-18T23:56:00.990Z,12.07
2024-02-18T23:58:28.417Z,12.03
